createdAt,value
2017-11-30T00:00:01.267Z,34.73
2017-11-30T00:02:28.772Z,33.63
2017-11-30T00:04:56.303Z,30.90
2017-11-30T00:07:23.812Z,26.97
2017-11-30T00:09:51.333Z,28.63
2017-11-30T00:12:19.608Z,28.60
2017-11-30T00:14:47.895Z,28.37
2017-11-30T00:17:16.159Z,31.20
2017-11-30T00:19:44.471Z,28.33
2017-11-30T00:22:11.969Z,32.67
2017-11-30T00:24:39.496Z,34.63
2017-11-30T00:27:06.987Z,32.50
2017-11-30T00:29:34.512Z,33.63
2017-11-30T00:32:02.033Z,39.17
2017-11-30T00:34:30.316Z,32.80
2017-11-30T00:36:58.580Z,30.60
2017-11-30T00:39:26.113Z,34.60
2017-11-30T00:41:53.620Z,31.07
2017-11-30T00:44:33.991Z,34.80
2017-11-30T00:47:01.487Z,30.03
2017-11-30T00:49:29.015Z,31.40
2017-11-30T00:51:56.515Z,33.37
2017-11-30T00:54:24.039Z,34.70
2017-11-30T00:56:51.540Z,30.83
2017-11-30T00:59:19.061Z,32.00
2017-11-30T01:01:46.558Z,34.30
2017-11-30T01:04:14.864Z,34.10
2017-11-30T01:06:42.369Z,32.10
2017-11-30T01:09:09.884Z,31.00
2017-11-30T01:11:37.382Z,31.93
2017-11-30T01:14:04.937Z,34.10
2017-11-30T01:16:32.486Z,34.90
2017-11-30T01:19:00.013Z,33.83
2017-11-30T01:21:27.531Z,36.03
2017-11-30T01:23:55.070Z,34.30
2017-11-30T01:26:22.587Z,39.67
2017-11-30T01:28:50.200Z,38.40
2017-11-30T01:31:17.708Z,33.63
2017-11-30T01:33:45.228Z,31.47
2017-11-30T01:36:12.726Z,39.93
2017-11-30T01:38:40.243Z,30.87
2017-11-30T01:41:07.740Z,33.50
2017-11-30T01:43:35.277Z,32.40
2017-11-30T01:46:03.552Z,32.93
2017-11-30T01:48:31.843Z,33.03
2017-11-30T01:51:00.116Z,30.47
2017-11-30T01:53:28.407Z,26.90
2017-11-30T01:55:55.907Z,39.30
2017-11-30T01:58:23.427Z,35.23
2017-11-30T02:00:50.928Z,35.70
2017-11-30T02:03:18.453Z,33.93
2017-11-30T02:05:45.964Z,31.17
2017-11-30T02:08:13.516Z,33.37
2017-11-30T02:10:41.018Z,38.87
2017-11-30T02:13:08.547Z,36.70
2017-11-30T02:15:36.045Z,33.03
2017-11-30T02:18:03.560Z,35.03
2017-11-30T02:20:31.057Z,32.47
2017-11-30T02:22:58.580Z,35.83
2017-11-30T02:25:26.076Z,34.90
2017-11-30T02:27:53.609Z,38.50
2017-11-30T02:30:21.873Z,37.40
2017-11-30T02:32:49.405Z,33.80
2017-11-30T02:35:16.904Z,34.87
2017-11-30T02:37:45.191Z,36.70
2017-11-30T02:40:12.693Z,34.30
2017-11-30T02:42:40.223Z,37.70
2017-11-30T02:45:07.736Z,40.40
2017-11-30T02:47:35.267Z,37.33
2017-11-30T02:50:02.772Z,38.03
2017-11-30T02:52:30.322Z,37.33
2017-11-30T02:54:58.614Z,34.77
2017-11-30T02:57:26.907Z,37.50
2017-11-30T02:59:54.417Z,37.67
2017-11-30T03:02:21.953Z,39.87
2017-11-30T03:04:49.477Z,37.47
2017-11-30T03:07:17.012Z,36.50
2017-11-30T03:09:45.289Z,34.67
2017-11-30T03:12:13.589Z,37.03
2017-11-30T03:14:41.087Z,36.43
2017-11-30T03:17:08.624Z,37.20
2017-11-30T03:19:36.127Z,35.57
2017-11-30T03:22:03.648Z,37.60
2017-11-30T03:24:31.151Z,33.07
2017-11-30T03:26:59.456Z,38.67
2017-11-30T03:29:26.972Z,42.70
2017-11-30T03:31:54.492Z,39.50
2017-11-30T03:34:21.987Z,40.10
2017-11-30T03:36:49.505Z,38.53
2017-11-30T03:39:17.008Z,39.03
2017-11-30T03:41:44.532Z,38.73
2017-11-30T03:44:12.037Z,46.50
2017-11-30T03:46:39.549Z,40.00
2017-11-30T03:49:07.073Z,43.90
2017-11-30T03:51:35.347Z,44.03
2017-11-30T03:54:02.895Z,41.30
2017-11-30T03:56:30.453Z,43.83
2017-11-30T03:58:58.772Z,46.70
2017-11-30T04:01:26.300Z,47.30
2017-11-30T04:03:53.858Z,45.37
2017-11-30T04:06:22.142Z,48.57
2017-11-30T04:08:49.686Z,46.87
2017-11-30T04:11:17.222Z,43.30
2017-11-30T04:13:44.766Z,47.10
2017-11-30T04:16:12.282Z,47.50
2017-11-30T04:18:39.826Z,46.40
2017-11-30T04:21:07.342Z,48.30
2017-11-30T04:23:34.879Z,48.27
2017-11-30T04:26:02.411Z,51.63
2017-11-30T04:28:30.713Z,47.43
2017-11-30T04:30:58.237Z,45.63
2017-11-30T04:33:26.547Z,49.67
2017-11-30T04:35:54.074Z,44.37
2017-11-30T04:38:22.394Z,48.20
2017-11-30T04:40:49.910Z,54.03
2017-11-30T04:43:17.455Z,47.27
2017-11-30T04:45:44.983Z,47.17
2017-11-30T04:48:12.530Z,50.90
2017-11-30T04:50:40.049Z,46.87
2017-11-30T04:53:08.362Z,51.57
2017-11-30T04:55:36.504Z,47.17
2017-11-30T04:58:04.846Z,45.20
2017-11-30T05:00:32.363Z,47.67
2017-11-30T05:02:59.902Z,52.50
2017-11-30T05:05:28.185Z,53.97
2017-11-30T05:07:55.739Z,49.20
2017-11-30T05:10:23.257Z,51.73
2017-11-30T05:12:51.573Z,44.30
2017-11-30T05:15:19.095Z,48.27
2017-11-30T05:17:46.642Z,50.03
2017-11-30T05:20:14.154Z,49.47
2017-11-30T05:22:41.729Z,46.07
2017-11-30T05:25:09.277Z,45.73
2017-11-30T05:27:36.828Z,45.67
2017-11-30T05:30:05.119Z,45.77
2017-11-30T05:32:32.673Z,45.47
2017-11-30T05:35:00.195Z,49.10
2017-11-30T05:37:27.735Z,52.87
2017-11-30T05:39:55.273Z,42.23
2017-11-30T05:42:22.810Z,40.60
2017-11-30T05:44:50.334Z,39.20
2017-11-30T05:47:17.887Z,40.53
2017-11-30T05:49:45.404Z,41.63
2017-11-30T05:52:12.948Z,39.03
2017-11-30T05:54:40.477Z,37.90
2017-11-30T05:57:08.011Z,39.37
2017-11-30T05:59:35.528Z,38.73
2017-11-30T06:02:03.071Z,36.90
2017-11-30T06:04:30.596Z,40.07
2017-11-30T06:06:58.132Z,39.80
2017-11-30T06:09:25.645Z,40.97
2017-11-30T06:11:53.945Z,37.30
2017-11-30T06:14:21.449Z,33.10
2017-11-30T06:16:48.982Z,39.00
2017-11-30T06:19:16.514Z,37.03
2017-11-30T06:21:44.044Z,34.70
2017-11-30T06:24:11.564Z,36.67
2017-11-30T06:26:39.097Z,36.53
2017-11-30T06:29:06.601Z,36.60
2017-11-30T06:31:34.133Z,36.67
2017-11-30T06:34:01.655Z,34.07
2017-11-30T06:36:29.976Z,39.83
2017-11-30T06:38:57.493Z,37.73
2017-11-30T06:41:25.798Z,35.13
2017-11-30T06:43:53.313Z,36.90
2017-11-30T06:46:21.613Z,33.60
2017-11-30T06:48:49.134Z,35.67
2017-11-30T06:51:17.432Z,30.57
2017-11-30T06:53:45.705Z,32.67
2017-11-30T06:56:13.245Z,32.10
2017-11-30T06:58:40.761Z,110.33
2017-11-30T07:01:08.294Z,30.40
2017-11-30T07:03:36.570Z,24.40
2017-11-30T07:06:04.115Z,24.70
2017-11-30T07:08:31.643Z,23.60
2017-11-30T07:10:59.188Z,27.00
2017-11-30T07:13:26.730Z,28.63
2017-11-30T07:15:54.277Z,25.37
2017-11-30T07:18:21.829Z,26.90
2017-11-30T07:20:49.361Z,27.87
2017-11-30T07:23:16.898Z,24.23
2017-11-30T07:25:44.438Z,30.37
2017-11-30T07:28:11.951Z,22.00
2017-11-30T07:30:40.248Z,62.67
2017-11-30T07:33:07.757Z,75.90
2017-11-30T07:35:35.289Z,27.80
2017-11-30T07:38:02.814Z,24.20
2017-11-30T07:40:31.121Z,25.17
2017-11-30T07:42:58.646Z,23.10
2017-11-30T07:45:26.195Z,25.77
2017-11-30T07:47:54.499Z,21.73
2017-11-30T07:50:22.050Z,19.80
2017-11-30T07:52:49.571Z,20.57
2017-11-30T07:55:17.110Z,18.47
2017-11-30T07:57:44.642Z,22.27
2017-11-30T08:00:12.181Z,18.70
2017-11-30T08:02:40.531Z,22.77
2017-11-30T08:05:08.162Z,19.83
2017-11-30T08:07:35.679Z,18.80
2017-11-30T08:10:03.234Z,26.97
2017-11-30T08:12:31.534Z,23.60
2017-11-30T08:14:59.102Z,20.03
2017-11-30T08:17:26.620Z,15.87
2017-11-30T08:19:54.912Z,16.93
2017-11-30T08:22:22.457Z,20.97
2017-11-30T08:24:50.741Z,20.33
2017-11-30T08:27:18.286Z,19.13
2017-11-30T08:29:46.569Z,17.47
2017-11-30T08:32:14.877Z,21.70
2017-11-30T08:34:42.393Z,19.90
2017-11-30T08:37:09.998Z,19.20
2017-11-30T08:39:37.514Z,17.77
2017-11-30T08:42:05.823Z,19.87
2017-11-30T08:44:33.356Z,17.30
2017-11-30T08:47:01.682Z,25.60
2017-11-30T08:49:29.199Z,17.00
2017-11-30T08:51:57.499Z,17.67
2017-11-30T08:54:25.015Z,18.60
2017-11-30T08:56:52.551Z,19.43
2017-11-30T08:59:20.076Z,18.57
2017-11-30T09:01:47.618Z,15.97
2017-11-30T09:04:15.901Z,17.10
2017-11-30T09:06:43.433Z,13.67
2017-11-30T09:09:10.961Z,10.13
2017-11-30T09:11:38.494Z,13.17
2017-11-30T09:14:06.024Z,18.90
2017-11-30T09:16:33.574Z,16.10
2017-11-30T09:19:01.878Z,17.20
2017-11-30T09:21:29.405Z,17.07
2017-11-30T09:23:57.681Z,18.13
2017-11-30T09:26:25.209Z,19.30
2017-11-30T09:28:52.709Z,17.03
2017-11-30T09:31:21.026Z,15.90
2017-11-30T09:33:48.546Z,16.63
2017-11-30T09:36:16.849Z,17.77
2017-11-30T09:38:44.356Z,19.37
2017-11-30T09:41:11.881Z,19.10
2017-11-30T09:43:39.444Z,21.67
2017-11-30T09:46:07.366Z,20.33
2017-11-30T09:48:35.645Z,18.77
2017-11-30T09:51:03.942Z,22.87
2017-11-30T09:53:31.443Z,19.97
2017-11-30T09:55:58.966Z,17.20
2017-11-30T09:58:26.495Z,22.53
2017-11-30T10:00:54.795Z,20.33
2017-11-30T10:03:22.303Z,16.87
2017-11-30T10:05:49.868Z,19.70
2017-11-30T10:08:17.421Z,21.33
2017-11-30T10:10:44.973Z,19.00
2017-11-30T10:13:12.479Z,18.43
2017-11-30T10:15:40.881Z,17.33
2017-11-30T10:18:08.389Z,17.10
2017-11-30T10:20:35.929Z,16.80
2017-11-30T10:23:03.569Z,16.33
2017-11-30T10:25:31.119Z,15.93
2017-11-30T10:27:58.625Z,15.17
2017-11-30T10:30:27.151Z,16.30
2017-11-30T10:32:54.664Z,15.80
2017-11-30T10:35:22.302Z,16.10
2017-11-30T10:37:49.821Z,17.00
2017-11-30T10:40:17.354Z,18.93
2017-11-30T10:42:44.861Z,18.97
2017-11-30T10:45:12.397Z,16.53
2017-11-30T10:47:39.901Z,16.63
2017-11-30T10:50:07.437Z,17.40
2017-11-30T10:52:34.946Z,17.70
2017-11-30T10:55:02.481Z,19.40
2017-11-30T10:57:29.993Z,20.10
2017-11-30T10:59:57.518Z,16.53
2017-11-30T11:02:25.038Z,18.90
2017-11-30T11:04:52.574Z,22.33
2017-11-30T11:07:20.126Z,19.20
2017-11-30T11:09:47.656Z,15.00
2017-11-30T11:12:15.170Z,17.90
2017-11-30T11:14:42.710Z,16.20
2017-11-30T11:17:10.221Z,16.17
2017-11-30T11:19:37.749Z,15.33
2017-11-30T11:22:05.262Z,15.23
2017-11-30T11:24:33.562Z,17.93
2017-11-30T11:27:01.071Z,16.67
2017-11-30T11:29:29.382Z,14.90
2017-11-30T11:31:57.652Z,14.70
2017-11-30T11:34:25.953Z,12.33
2017-11-30T11:36:53.477Z,14.80
2017-11-30T11:39:21.770Z,13.23
2017-11-30T11:41:50.053Z,13.97
2017-11-30T11:44:17.587Z,12.57
2017-11-30T11:46:45.096Z,12.97
2017-11-30T11:49:12.625Z,13.50
2017-11-30T11:51:40.136Z,11.30
2017-11-30T11:54:07.667Z,12.60
2017-11-30T11:56:35.177Z,14.63
2017-11-30T11:59:02.708Z,10.57
2017-11-30T12:01:30.216Z,13.50
2017-11-30T12:03:58.510Z,11.27
2017-11-30T12:06:26.018Z,12.70
2017-11-30T12:08:53.549Z,10.27
2017-11-30T12:11:21.050Z,9.00
2017-11-30T12:13:48.577Z,9.37
2017-11-30T12:16:16.081Z,13.00
2017-11-30T12:18:44.381Z,12.23
2017-11-30T12:21:11.926Z,10.30
2017-11-30T12:23:39.458Z,16.23
2017-11-30T12:26:06.963Z,11.60
2017-11-30T12:28:34.493Z,10.53
2017-11-30T12:31:02.769Z,13.40
2017-11-30T12:33:31.070Z,13.20
2017-11-30T12:35:58.581Z,12.40
2017-11-30T12:38:26.885Z,14.67
2017-11-30T12:40:54.394Z,11.77
2017-11-30T12:43:21.929Z,14.10
2017-11-30T12:45:49.433Z,11.33
2017-11-30T12:48:16.966Z,9.93
2017-11-30T12:50:44.469Z,14.03
2017-11-30T12:53:11.992Z,11.73
2017-11-30T12:55:39.498Z,16.87
2017-11-30T12:58:07.024Z,21.20
2017-11-30T13:00:34.552Z,13.60
2017-11-30T13:03:02.064Z,13.27
2017-11-30T13:05:30.419Z,15.40
2017-11-30T13:07:57.914Z,11.77
2017-11-30T13:10:25.435Z,12.87
2017-11-30T13:12:52.939Z,13.17
2017-11-30T13:15:20.463Z,16.10
2017-11-30T13:17:47.959Z,15.73
2017-11-30T13:20:15.483Z,14.07
2017-11-30T13:22:42.997Z,15.60
2017-11-30T13:25:10.523Z,14.03
2017-11-30T13:27:38.789Z,13.97
2017-11-30T13:30:07.080Z,11.10
2017-11-30T13:32:34.592Z,13.80
2017-11-30T13:35:02.140Z,14.43
2017-11-30T13:37:29.657Z,17.37
2017-11-30T13:39:57.179Z,16.50
2017-11-30T13:42:24.688Z,14.70
2017-11-30T13:44:52.216Z,13.10
2017-11-30T13:47:20.486Z,16.80
2017-11-30T13:49:48.780Z,14.97
2017-11-30T13:52:16.284Z,16.50
2017-11-30T13:54:43.812Z,15.20
2017-11-30T13:57:11.321Z,15.30
2017-11-30T13:59:38.847Z,16.63
2017-11-30T14:02:06.349Z,12.87
2017-11-30T14:04:33.871Z,16.50
2017-11-30T14:07:01.379Z,13.77
2017-11-30T14:09:29.687Z,14.37
2017-11-30T14:11:57.187Z,13.80
2017-11-30T14:14:24.717Z,14.23
2017-11-30T14:16:52.216Z,16.10
2017-11-30T14:19:19.739Z,14.60
2017-11-30T14:21:47.244Z,16.63
2017-11-30T14:24:15.530Z,24.87
2017-11-30T14:26:43.795Z,16.40
2017-11-30T14:29:12.092Z,39.27
2017-11-30T14:31:39.600Z,20.07
2017-11-30T14:34:07.130Z,37.10
2017-11-30T14:36:34.636Z,28.30
2017-11-30T14:39:02.159Z,21.47
2017-11-30T14:41:29.668Z,19.67
2017-11-30T14:43:57.200Z,22.90
2017-11-30T14:46:24.704Z,18.90
2017-11-30T14:48:52.245Z,19.23
2017-11-30T14:51:19.759Z,23.03
2017-11-30T14:53:47.292Z,23.27
2017-11-30T14:56:14.801Z,22.67
2017-11-30T14:58:42.326Z,26.90
2017-11-30T15:01:09.832Z,25.67
2017-11-30T15:03:38.124Z,27.87
2017-11-30T15:06:05.633Z,24.80
2017-11-30T15:08:33.166Z,29.23
2017-11-30T15:11:00.676Z,26.70
2017-11-30T15:13:28.203Z,30.13
2017-11-30T15:15:55.709Z,34.00
2017-11-30T15:18:24.004Z,28.97
2017-11-30T15:20:51.516Z,29.90
2017-11-30T15:23:19.043Z,28.50
2017-11-30T15:25:46.547Z,31.57
2017-11-30T15:28:14.076Z,28.67
2017-11-30T15:30:41.583Z,32.13
2017-11-30T15:33:09.875Z,30.10
2017-11-30T15:35:37.391Z,29.43
2017-11-30T15:38:06.444Z,25.80
2017-11-30T15:40:33.944Z,25.80
2017-11-30T15:43:01.472Z,26.67
2017-11-30T15:45:28.980Z,26.10
2017-11-30T15:47:57.267Z,27.00
2017-11-30T15:50:25.551Z,29.10
2017-11-30T15:52:53.080Z,28.70
2017-11-30T15:55:20.581Z,25.20
2017-11-30T15:57:48.104Z,25.00
2017-11-30T16:00:15.619Z,27.13
2017-11-30T16:02:43.152Z,27.07
2017-11-30T16:05:10.647Z,25.37
2017-11-30T16:07:38.176Z,26.90
2017-11-30T16:10:05.680Z,23.73
2017-11-30T16:12:33.207Z,26.43
2017-11-30T16:15:00.708Z,23.87
2017-11-30T16:17:28.240Z,25.90
2017-11-30T16:19:55.754Z,26.50
2017-11-30T16:22:23.284Z,21.20
2017-11-30T16:24:50.785Z,23.47
2017-11-30T16:27:18.315Z,26.87
2017-11-30T16:29:46.580Z,24.50
2017-11-30T16:32:14.200Z,26.30
2017-11-30T16:34:41.713Z,30.27
2017-11-30T16:37:10.017Z,25.67
2017-11-30T16:39:37.519Z,24.07
2017-11-30T16:42:05.051Z,22.97
2017-11-30T16:44:32.553Z,24.27
2017-11-30T16:47:00.079Z,25.10
2017-11-30T16:49:27.580Z,29.67
2017-11-30T16:51:55.885Z,24.63
2017-11-30T16:54:23.384Z,24.93
2017-11-30T16:56:51.680Z,27.13
2017-11-30T16:59:19.184Z,22.67
2017-11-30T17:01:46.708Z,25.27
2017-11-30T17:04:14.983Z,21.93
2017-11-30T17:06:42.506Z,23.93
2017-11-30T17:09:10.040Z,23.57
2017-11-30T17:11:37.565Z,25.90
2017-11-30T17:14:05.831Z,25.23
2017-11-30T17:16:34.108Z,24.40
2017-11-30T17:19:02.404Z,23.37
2017-11-30T17:21:29.903Z,22.90
2017-11-30T17:23:57.436Z,22.23
2017-11-30T17:26:24.941Z,21.50
2017-11-30T17:28:52.468Z,23.13
2017-11-30T17:31:19.972Z,24.73
2017-11-30T17:33:47.499Z,26.47
2017-11-30T17:36:15.035Z,24.57
2017-11-30T17:38:42.540Z,23.00
2017-11-30T17:41:10.045Z,26.40
2017-11-30T17:43:37.593Z,23.40
2017-11-30T17:46:05.104Z,20.43
2017-11-30T17:48:32.641Z,21.20
2017-11-30T17:51:00.144Z,23.90
2017-11-30T17:53:27.668Z,20.93
2017-11-30T17:55:55.177Z,23.27
2017-11-30T17:58:22.703Z,22.60
2017-11-30T18:00:50.212Z,23.40
2017-11-30T18:03:17.752Z,25.10
2017-11-30T18:05:46.015Z,26.47
2017-11-30T18:08:14.307Z,23.77
2017-11-30T18:10:42.595Z,22.20
2017-11-30T18:13:10.127Z,23.07
2017-11-30T18:15:37.639Z,28.40
2017-11-30T18:18:08.045Z,26.60
2017-11-30T18:20:35.552Z,25.67
2017-11-30T18:23:03.081Z,26.27
2017-11-30T18:25:30.616Z,27.30
2017-11-30T18:27:58.157Z,24.97
2017-11-30T18:30:26.463Z,33.70
2017-11-30T18:32:53.992Z,30.23
2017-11-30T18:35:22.270Z,33.60
2017-11-30T18:37:50.555Z,32.90
2017-11-30T18:40:18.066Z,29.33
2017-11-30T18:42:45.597Z,30.27
2017-11-30T18:45:13.099Z,30.93
2017-11-30T18:47:40.624Z,33.57
2017-11-30T18:50:08.128Z,29.47
2017-11-30T18:52:36.424Z,35.87
2017-11-30T18:55:03.930Z,33.23
2017-11-30T18:57:31.457Z,30.47
2017-11-30T18:59:58.959Z,31.63
2017-11-30T19:02:26.486Z,30.67
2017-11-30T19:04:54.004Z,33.27
2017-11-30T19:07:22.316Z,31.60
2017-11-30T19:09:49.825Z,32.70
2017-11-30T19:12:17.373Z,35.83
2017-11-30T19:14:44.895Z,30.50
2017-11-30T19:17:12.423Z,27.50
2017-11-30T19:19:40.701Z,29.40
2017-11-30T19:22:08.236Z,26.87
2017-11-30T19:24:35.743Z,28.10
2017-11-30T19:27:03.279Z,29.67
2017-11-30T19:29:31.557Z,27.60
2017-11-30T19:31:59.096Z,32.17
2017-11-30T19:34:27.435Z,28.43
2017-11-30T19:36:54.964Z,27.20
2017-11-30T19:39:22.472Z,26.30
2017-11-30T19:41:50.004Z,26.17
2017-11-30T19:44:17.504Z,27.73
2017-11-30T19:46:45.796Z,26.80
2017-11-30T19:49:14.062Z,40.67
2017-11-30T19:51:42.355Z,30.37
2017-11-30T19:54:09.864Z,27.93
2017-11-30T19:56:37.399Z,26.60
2017-11-30T19:59:04.899Z,26.40
2017-11-30T20:01:32.419Z,29.07
2017-11-30T20:03:59.931Z,28.50
2017-11-30T20:06:28.227Z,28.43
2017-11-30T20:08:55.736Z,26.07
2017-11-30T20:11:23.268Z,24.93
2017-11-30T20:13:50.771Z,25.90
2017-11-30T20:16:18.319Z,28.57
2017-11-30T20:18:45.820Z,27.90
2017-11-30T20:21:13.356Z,25.60
2017-11-30T20:23:41.636Z,23.20
2017-11-30T20:26:09.172Z,23.30
2017-11-30T20:28:36.682Z,23.73
2017-11-30T20:31:04.216Z,24.63
2017-11-30T20:33:31.733Z,26.10
2017-11-30T20:35:59.264Z,21.70
2017-11-30T20:38:26.775Z,21.13
2017-11-30T20:40:55.163Z,22.20
2017-11-30T20:43:23.440Z,21.50
2017-11-30T20:45:51.760Z,21.93
2017-11-30T20:48:19.264Z,19.90
2017-11-30T20:50:46.792Z,21.23
2017-11-30T20:53:14.305Z,22.40
2017-11-30T20:55:41.841Z,21.23
2017-11-30T20:58:09.343Z,22.17
2017-11-30T21:00:36.871Z,22.23
2017-11-30T21:03:05.148Z,24.57
2017-11-30T21:05:33.444Z,22.37
2017-11-30T21:08:00.953Z,26.30
2017-11-30T21:10:28.483Z,32.87
2017-11-30T21:12:55.988Z,27.43
2017-11-30T21:15:23.495Z,26.17
2017-11-30T21:17:51.027Z,25.30
2017-11-30T21:20:19.307Z,26.70
2017-11-30T21:22:46.861Z,24.07
2017-11-30T21:25:15.158Z,27.17
2017-11-30T21:27:42.688Z,28.47
2017-11-30T21:30:10.964Z,28.57
2017-11-30T21:32:39.252Z,22.70
2017-11-30T21:35:07.520Z,24.13
2017-11-30T21:37:35.936Z,24.17
2017-11-30T21:40:03.439Z,21.27
2017-11-30T21:42:30.972Z,22.63
2017-11-30T21:44:58.476Z,24.33
2017-11-30T21:47:26.766Z,30.93
2017-11-30T21:49:54.271Z,44.50
2017-11-30T21:52:21.802Z,23.13
2017-11-30T21:54:49.328Z,18.87
2017-11-30T21:57:17.623Z,21.63
2017-11-30T21:59:45.223Z,26.10
2017-11-30T22:02:12.772Z,22.60
2017-11-30T22:04:41.033Z,23.30
2017-11-30T22:07:08.572Z,24.20
2017-11-30T22:09:36.104Z,24.90
2017-11-30T22:12:03.635Z,22.07
2017-11-30T22:14:31.202Z,19.03
2017-11-30T22:16:58.783Z,19.10
2017-11-30T22:19:26.304Z,17.60
2017-11-30T22:21:53.819Z,20.33
2017-11-30T22:24:22.124Z,18.83
2017-11-30T22:26:49.632Z,18.50
2017-11-30T22:29:17.180Z,21.93
2017-11-30T22:31:44.912Z,19.27
2017-11-30T22:34:12.422Z,21.80
2017-11-30T22:36:39.965Z,17.40
2017-11-30T22:39:08.276Z,20.30
2017-11-30T22:41:35.821Z,15.90
2017-11-30T22:44:03.352Z,15.20
2017-11-30T22:46:30.979Z,15.13
2017-11-30T22:48:58.522Z,15.67
2017-11-30T22:51:26.036Z,18.37
2017-11-30T22:53:53.563Z,19.00
2017-11-30T22:56:21.080Z,19.10
2017-11-30T22:58:49.372Z,19.97
2017-11-30T23:01:16.875Z,19.40
2017-11-30T23:03:44.375Z,20.10
2017-11-30T23:06:12.673Z,21.30
2017-11-30T23:08:40.171Z,26.43
2017-11-30T23:11:07.700Z,24.77
2017-11-30T23:13:35.203Z,24.03
2017-11-30T23:16:02.722Z,26.57
2017-11-30T23:18:30.239Z,23.50
2017-11-30T23:20:58.502Z,30.13
2017-11-30T23:23:26.023Z,22.10
2017-11-30T23:25:53.522Z,20.90
2017-11-30T23:28:21.042Z,24.90
2017-11-30T23:30:48.539Z,19.60
2017-11-30T23:35:54.572Z,20.50
2017-11-30T23:38:22.072Z,23.53
2017-11-30T23:40:49.590Z,22.07
2017-11-30T23:43:17.091Z,22.60
2017-11-30T23:45:44.614Z,20.60
2017-11-30T23:48:12.110Z,21.50
2017-11-30T23:50:39.635Z,17.87
2017-11-30T23:53:07.158Z,21.40
2017-11-30T23:55:34.743Z,17.93
2017-11-30T23:58:02.253Z,21.57
